Time;durP1;ratioP1;P1;durP2;ratioP2;P2;SDS_P1;SDS_P2;PMS_P1;PMS_P2;Temp;Humidity;BMP_temperature;BMP_pressure;BME280_temperature;BME280_humidity;BME280_pressure;Samples;Min_cycle;Max_cycle;Signal;HPM_P1;HPM_P2
2021/10/21 00:00:47;;;;;;;15.15;12.00;;;;;;;7.23;100.00;101587.43;1596336;89;21814;-88
2021/10/21 00:03:15;;;;;;;18.98;11.83;;;;;;;7.23;100.00;101597.36;1595987;89;21100;-88
2021/10/21 00:05:42;;;;;;;21.02;12.43;;;;;;;7.21;100.00;101591.39;1596351;89;21042;-88
2021/10/21 00:08:09;;;;;;;22.45;13.18;;;;;;;7.20;100.00;101585.83;1596180;89;21060;-89
2021/10/21 00:10:37;;;;;;;19.80;13.55;;;;;;;7.20;100.00;101587.12;1596350;89;21085;-93
2021/10/21 00:13:05;;;;;;;19.87;13.55;;;;;;;7.21;100.00;101578.44;1596113;89;21041;-92
2021/10/21 00:15:33;;;;;;;21.12;13.98;;;;;;;7.23;100.00;101581.81;1598122;89;21124;-92
2021/10/21 00:18:00;;;;;;;24.05;12.53;;;;;;;7.23;100.00;101576.63;1596143;89;21053;-90
2021/10/21 00:20:27;;;;;;;22.30;13.20;;;;;;;7.23;100.00;101570.16;1573183;89;21022;-90
2021/10/21 00:22:57;;;;;;;17.65;12.68;;;;;;;7.23;100.00;101568.86;1595630;88;21044;-91
2021/10/21 00:25:24;;;;;;;18.40;12.45;;;;;;;7.23;100.00;101561.09;1599546;88;21776;-90
2021/10/21 00:27:51;;;;;;;18.87;13.13;;;;;;;7.23;100.00;101549.43;1596055;89;21066;-90
2021/10/21 00:30:18;;;;;;;17.32;12.70;;;;;;;7.23;100.00;101553.75;1596349;89;21025;-90
2021/10/21 00:32:46;;;;;;;16.90;12.43;;;;;;;7.23;100.00;101543.39;1596124;89;21081;-91
2021/10/21 00:35:13;;;;;;;16.23;12.43;;;;;;;7.23;100.00;101549.86;1596342;89;21085;-91
2021/10/21 00:37:40;;;;;;;15.53;12.35;;;;;;;7.23;100.00;101539.06;1596121;89;21714;-92
2021/10/21 00:40:10;;;;;;;17.23;11.25;;;;;;;7.23;100.00;101533.03;1596107;89;21069;-90
2021/10/21 00:42:38;;;;;;;16.60;11.65;;;;;;;7.21;100.00;101530.52;1550232;89;21568;-91
2021/10/21 00:45:07;;;;;;;16.32;11.53;;;;;;;7.20;100.00;101532.72;1574878;89;21072;-90
2021/10/21 00:47:34;;;;;;;15.38;11.50;;;;;;;7.20;100.00;101523.66;1572078;90;21071;-91
2021/10/21 00:50:01;;;;;;;15.65;11.65;;;;;;;7.21;100.00;101524.51;1591610;89;21155;-92
2021/10/21 00:52:30;;;;;;;16.82;12.10;;;;;;;7.21;100.00;101525.34;1591688;89;21055;-91
2021/10/21 00:54:58;;;;;;;17.17;12.60;;;;;;;7.21;100.00;101520.16;1591640;89;21064;-91
2021/10/21 00:57:26;;;;;;;17.27;13.38;;;;;;;7.23;100.00;101516.19;1591600;89;21131;-90
2021/10/21 00:59:53;;;;;;;17.95;12.35;;;;;;;7.25;100.00;101507.43;1582618;88;21104;-90
2021/10/21 01:02:21;;;;;;;19.57;14.43;;;;;;;7.28;100.00;101515.98;1620900;88;21104;-90
2021/10/21 01:04:48;;;;;;;21.30;14.10;;;;;;;7.26;100.00;101510.41;1620932;88;21533;-92
2021/10/21 01:07:15;;;;;;;21.33;14.63;;;;;;;7.28;100.00;101512.95;1621272;88;21627;-92
2021/10/21 01:09:45;;;;;;;24.15;16.00;;;;;;;7.29;100.00;101504.23;1620978;88;21173;-89
2021/10/21 01:12:13;;;;;;;24.02;16.12;;;;;;;7.31;100.00;101494.65;1603059;88;21086;-89
2021/10/21 01:14:42;;;;;;;20.37;14.80;;;;;;;7.33;100.00;101495.89;1620823;88;21150;-89
2021/10/21 01:17:09;;;;;;;23.60;14.55;;;;;;;7.35;100.00;101497.93;1600060;88;21035;-91
2021/10/21 01:19:37;;;;;;;18.77;14.78;;;;;;;7.36;100.00;101495.73;1617985;88;21027;-89
2021/10/21 01:22:04;;;;;;;22.45;14.63;;;;;;;7.36;100.00;101490.55;1617570;88;21126;-89
2021/10/21 01:24:32;;;;;;;20.15;13.83;;;;;;;7.36;100.00;101497.87;1620894;88;21055;-90
2021/10/21 01:27:01;;;;;;;18.20;13.85;;;;;;;7.39;100.00;101495.13;1602693;87;21836;-91
2021/10/21 01:29:28;;;;;;;15.85;12.75;;;;;;;7.40;100.00;101490.33;1620853;88;21023;-90
2021/10/21 01:31:56;;;;;;;19.60;13.98;;;;;;;7.41;100.00;101484.70;1581987;88;21055;-90
2021/10/21 01:34:24;;;;;;;18.57;14.43;;;;;;;7.43;100.00;101490.63;1617372;88;21505;-89
2021/10/21 01:36:53;;;;;;;18.27;14.38;;;;;;;7.43;100.00;101489.34;1621141;88;21056;-90
2021/10/21 01:39:21;;;;;;;17.07;13.98;;;;;;;7.45;100.00;101490.58;1620894;88;21144;-92
2021/10/21 01:41:49;;;;;;;19.42;15.08;;;;;;;7.46;100.00;101481.86;1617440;88;21097;-92
2021/10/21 01:44:17;;;;;;;21.25;16.20;;;;;;;7.47;100.00;101486.14;1621102;88;20993;-91
2021/10/21 01:46:44;;;;;;;22.62;16.30;;;;;;;7.48;100.00;101477.45;1593638;89;20998;-91
2021/10/21 01:49:11;;;;;;;21.80;16.97;;;;;;;7.49;100.00;101471.36;1629670;88;21009;-90
2021/10/21 01:51:38;;;;;;;22.20;17.17;;;;;;;7.49;100.00;101467.48;1614780;88;21156;-90
2021/10/21 01:54:05;;;;;;;20.55;16.82;;;;;;;7.50;100.00;101462.20;1614685;88;21084;-90
2021/10/21 01:56:32;;;;;;;21.48;17.35;;;;;;;7.52;100.00;101459.56;1595620;88;21479;-92
2021/10/21 01:58:59;;;;;;;24.05;17.90;;;;;;;7.52;100.00;101470.76;1592867;88;21527;-91
2021/10/21 02:01:26;;;;;;;20.52;16.80;;;;;;;7.55;100.00;101465.88;1621068;88;21089;-90
2021/10/21 02:03:53;;;;;;;20.45;16.20;;;;;;;7.56;100.00;101461.08;1621205;88;21162;-91
2021/10/21 02:06:21;;;;;;;22.98;17.55;;;;;;;7.56;100.00;101459.34;1592618;88;21010;-93
2021/10/21 02:08:48;;;;;;;23.83;17.55;;;;;;;7.56;100.00;101458.05;1621372;88;21006;-91
2021/10/21 02:11:17;;;;;;;25.27;18.23;;;;;;;7.58;100.00;101466.56;1621256;88;20997;-94
2021/10/21 02:13:44;;;;;;;21.90;17.07;;;;;;;7.60;100.00;101465.66;1621475;88;21120;-92
2021/10/21 02:16:11;;;;;;;23.10;18.25;;;;;;;7.62;100.00;101456.88;1595756;88;21696;-93
2021/10/21 02:18:38;;;;;;;21.02;17.60;;;;;;;7.64;100.00;101469.78;1621242;88;21016;-94
2021/10/21 02:21:05;;;;;;;26.00;19.52;;;;;;;7.68;100.00;101473.89;1595605;88;21128;-92
2021/10/21 02:23:33;;;;;;;25.90;18.90;;;;;;;7.70;100.00;101477.26;1621507;88;21054;-93
2021/10/21 02:26:00;;;;;;;25.25;18.07;;;;;;;7.72;100.00;101474.96;1612348;88;21060;-92
2021/10/21 02:28:27;;;;;;;25.17;17.92;;;;;;;7.74;100.00;101468.39;1598961;89;21085;-92
2021/10/21 02:30:54;;;;;;;25.95;19.98;;;;;;;7.73;100.00;101462.86;1598727;89;21052;-93
2021/10/21 02:33:21;;;;;;;25.40;20.40;;;;;;;7.75;100.00;101462.30;1599193;89;21928;-92
2021/10/21 02:35:48;;;;;;;26.62;20.08;;;;;;;7.77;100.00;101466.96;1572034;89;21044;-91
2021/10/21 02:38:16;;;;;;;26.30;21.68;;;;;;;7.77;100.00;101467.43;1599310;89;21088;-92
2021/10/21 02:40:45;;;;;;;24.77;20.15;;;;;;;7.77;100.00;101469.55;1572626;89;21315;-89
2021/10/21 02:43:13;;;;;;;24.00;19.12;;;;;;;7.80;100.00;101468.55;1596462;89;21045;-91
2021/10/21 02:45:41;;;;;;;25.25;20.57;;;;;;;7.81;100.00;101469.77;1575717;89;21575;-91
2021/10/21 02:48:08;;;;;;;25.12;21.12;;;;;;;7.82;100.00;101464.14;1582962;88;21577;-91
2021/10/21 02:50:35;;;;;;;28.15;21.05;;;;;;;7.82;100.00;101468.86;1568151;89;21650;-89
2021/10/21 02:53:02;;;;;;;27.55;20.92;;;;;;;7.83;100.00;101461.46;1602989;88;21158;-89
2021/10/21 02:55:30;;;;;;;26.97;19.95;;;;;;;7.85;100.00;101457.52;1567527;89;21080;-90
2021/10/21 02:57:59;;;;;;;30.70;22.52;;;;;;;7.87;100.00;101452.62;1593845;87;21019;-90
2021/10/21 03:00:28;;;;;;;29.60;22.13;;;;;;;7.90;100.00;101462.00;1577097;89;21030;-90
2021/10/21 03:02:55;;;;;;;40.43;23.87;;;;;;;7.92;100.00;101452.40;1575879;89;21085;-89
2021/10/21 03:05:24;;;;;;;40.67;25.62;;;;;;;8.00;100.00;101448.10;1602086;89;21159;-88
2021/10/21 03:07:51;;;;;;;29.63;22.35;;;;;;;8.17;100.00;101442.89;1602100;89;21005;-89
2021/10/21 03:10:18;;;;;;;30.90;21.97;;;;;;;8.25;100.00;101445.55;1564330;87;21057;-87
2021/10/21 03:12:46;;;;;;;28.92;23.05;;;;;;;8.23;100.00;101436.55;1591754;87;21018;-88
2021/10/21 03:15:13;;;;;;;29.07;22.90;;;;;;;8.23;100.00;101426.62;1578265;89;21048;-87
2021/10/21 03:17:42;;;;;;;28.40;22.98;;;;;;;8.22;100.00;101429.69;1578234;89;21271;-89
2021/10/21 03:20:14;;;;;;;30.75;22.55;;;;;;;8.28;100.00;101431.13;1574918;88;21054;-89
2021/10/21 03:22:42;;;;;;;28.35;21.73;;;;;;;8.29;100.00;101431.03;1602125;87;21894;-89
2021/10/21 03:25:11;;;;;;;30.85;23.52;;;;;;;8.29;100.00;101431.51;1621065;86;21075;-87
2021/10/21 03:27:39;;;;;;;31.82;22.50;;;;;;;8.30;100.00;101439.64;1577320;88;21046;-88
2021/10/21 03:30:08;;;;;;;35.15;22.65;;;;;;;8.42;100.00;101432.53;1570085;89;21159;-87
2021/10/21 03:32:35;;;;;;;34.38;23.15;;;;;;;8.54;100.00;101437.56;1576876;89;21030;-88
2021/10/21 03:35:03;;;;;;;30.70;23.52;;;;;;;8.75;100.00;101433.41;1587412;89;21060;-86
2021/10/21 03:37:30;;;;;;;31.30;24.90;;;;;;;8.91;100.00;101432.12;1571660;90;21038;-92
2021/10/21 03:39:59;;;;;;;37.90;22.90;;;;;;;9.00;100.00;101425.12;1587406;89;20999;-89
2021/10/21 03:42:26;;;;;;;37.95;24.60;;;;;;;9.02;100.00;101424.56;1572683;90;21850;-91
2021/10/21 03:44:57;;;;;;;31.33;23.92;;;;;;;9.02;100.00;101418.55;1590004;88;20986;-88
2021/10/21 03:47:25;;;;;;;30.60;23.38;;;;;;;9.01;100.00;101415.12;1616285;88;21041;-90
2021/10/21 03:49:52;;;;;;;29.70;23.35;;;;;;;8.99;100.00;101410.46;1616248;88;21080;-88
2021/10/21 03:52:20;;;;;;;26.40;22.00;;;;;;;8.94;100.00;101404.66;1616219;88;21074;-89
2021/10/21 03:54:49;;;;;;;30.02;22.87;;;;;;;8.91;100.00;101400.96;1590810;88;21813;-89
2021/10/21 03:57:16;;;;;;;32.53;23.62;;;;;;;8.92;100.00;101402.64;1581057;89;21489;-89
2021/10/21 03:59:43;;;;;;;31.40;22.67;;;;;;;8.92;100.00;101396.14;1554222;90;21055;-89
2021/10/21 04:02:11;;;;;;;30.62;24.30;;;;;;;8.92;100.00;101401.34;1563975;89;21011;-88
2021/10/21 04:04:38;;;;;;;27.98;22.32;;;;;;;8.89;100.00;101393.27;1598679;89;21015;-91
2021/10/21 04:07:05;;;;;;;29.00;23.18;;;;;;;8.89;100.00;101396.30;1603546;88;21497;-89
2021/10/21 04:09:32;;;;;;;28.87;22.90;;;;;;;8.89;100.00;101397.60;1598579;88;21063;-88
2021/10/21 04:12:01;;;;;;;31.37;23.92;;;;;;;8.88;100.00;101406.31;1598383;88;20943;-90
2021/10/21 04:14:28;;;;;;;28.47;23.30;;;;;;;8.87;100.00;101409.39;1593010;89;21057;-89
2021/10/21 04:16:55;;;;;;;34.27;24.00;;;;;;;8.88;100.00;101402.41;1569463;90;21495;-89
2021/10/21 04:19:22;;;;;;;28.52;23.32;;;;;;;8.88;100.00;101407.61;1594027;90;21197;-89
2021/10/21 04:21:49;;;;;;;27.93;22.93;;;;;;;8.88;100.00;101403.27;1594209;90;21102;-88
2021/10/21 04:24:16;;;;;;;32.78;23.02;;;;;;;8.89;100.00;101398.90;1594041;90;21042;-88
2021/10/21 04:26:44;;;;;;;31.27;22.70;;;;;;;8.91;100.00;101397.89;1594344;90;21013;-88
2021/10/21 04:29:11;;;;;;;37.60;22.27;;;;;;;8.96;100.00;101402.38;1594008;90;21050;-88
2021/10/21 04:31:38;;;;;;;31.80;22.20;;;;;;;8.99;100.00;101398.30;1594270;90;21888;-90
2021/10/21 04:34:05;;;;;;;29.07;22.02;;;;;;;9.02;100.00;101403.78;1539952;90;20994;-90
2021/10/21 04:36:32;;;;;;;27.62;22.10;;;;;;;9.00;100.00;101393.48;1581237;89;21062;-88
2021/10/21 04:38:59;;;;;;;28.02;21.30;;;;;;;8.99;100.00;101398.30;1578368;90;21511;-89
2021/10/21 04:41:26;;;;;;;26.10;21.33;;;;;;;8.99;100.00;101398.77;1573889;90;21111;-87
2021/10/21 04:43:54;;;;;;;29.82;22.82;;;;;;;8.98;100.00;101389.30;1567130;90;21304;-90
2021/10/21 04:46:21;;;;;;;28.07;22.30;;;;;;;8.96;100.00;101385.94;1570300;89;21726;-91
2021/10/21 04:48:48;;;;;;;33.18;21.10;;;;;;;8.96;100.00;101388.55;1624242;87;20995;-89
2021/10/21 04:51:15;;;;;;;27.98;21.00;;;;;;;8.96;100.00;101393.30;1629558;88;21450;-90
2021/10/21 04:53:43;;;;;;;28.75;20.92;;;;;;;8.97;100.00;101394.12;1600707;87;21091;-87
2021/10/21 04:56:11;;;;;;;28.15;21.48;;;;;;;8.97;100.00;101392.81;1570930;89;21128;-89
2021/10/21 04:58:39;;;;;;;25.60;20.43;;;;;;;8.99;100.00;101387.08;1610244;87;21020;-89
2021/10/21 05:01:06;;;;;;;24.77;19.98;;;;;;;9.00;100.00;101393.48;1596713;89;21533;-89
2021/10/21 05:03:33;;;;;;;26.55;19.98;;;;;;;9.05;100.00;101391.10;1586922;89;21010;-90
2021/10/21 06:51:54;;;;;;;16.50;12.58;;;;;;;11.86;100.00;101337.64;1812987;77;22432;-94
2021/10/21 08:17:37;;;;;;;13.62;8.90;;;;;;;13.72;100.00;101273.20;1686281;82;22854;-95
2021/10/21 08:20:05;;;;;;;10.75;9.15;;;;;;;13.80;100.00;101273.44;1692903;83;20962;-90
2021/10/21 08:22:37;;;;;;;9.33;8.35;;;;;;;13.91;100.00;101259.95;1694498;83;21744;-94
2021/10/21 08:25:05;;;;;;;16.67;9.20;;;;;;;14.00;100.00;101254.84;1695862;83;22265;-95
2021/10/21 08:27:32;;;;;;;10.90;8.45;;;;;;;14.09;100.00;101251.95;1696092;82;21520;-89
2021/10/21 08:29:59;;;;;;;12.95;8.35;;;;;;;14.18;100.00;101254.33;1673357;84;21581;-94
2021/10/21 08:32:26;;;;;;;10.88;7.92;;;;;;;14.27;100.00;101254.05;1692307;83;21038;-90
2021/10/21 08:34:53;;;;;;;10.68;7.97;;;;;;;14.37;100.00;101261.53;1663038;84;21089;-90
2021/10/21 08:37:21;;;;;;;10.72;7.67;;;;;;;14.43;100.00;101254.94;1686789;83;21763;-85
2021/10/21 08:39:48;;;;;;;11.90;7.62;;;;;;;14.51;100.00;101248.13;1678640;83;21088;-85
2021/10/21 08:42:17;;;;;;;15.18;10.10;;;;;;;14.60;100.00;101254.89;1668983;83;21144;-86
2021/10/21 08:44:44;;;;;;;15.98;13.10;;;;;;;14.67;100.00;101239.04;1674624;83;21037;-86
2021/10/21 08:47:12;;;;;;;13.90;11.75;;;;;;;14.74;100.00;101241.99;1668924;83;21147;-83
2021/10/21 08:49:41;;;;;;;12.05;9.30;;;;;;;14.80;100.00;101246.72;1659053;84;21030;-85
2021/10/21 08:52:11;;;;;;;16.73;9.95;;;;;;;14.85;100.00;101245.03;1663883;84;21105;-88
2021/10/21 08:54:38;;;;;;;12.15;8.68;;;;;;;14.91;100.00;101237.95;1693770;84;21058;-85
2021/10/21 08:57:10;;;;;;;11.95;9.45;;;;;;;14.98;100.00;101249.59;1693587;84;21113;-85
2021/10/21 08:59:40;;;;;;;14.18;10.03;;;;;;;15.05;100.00;101224.50;1667463;83;21073;-84
2021/10/21 09:02:23;;;;;;;9.18;7.30;;;;;;;15.13;100.00;101226.49;1652665;84;21039;-82
2021/10/21 09:10:08;;;;;;;9.58;6.75;;;;;;;15.27;100.00;101209.55;1683172;83;21035;-84
2021/10/21 09:12:48;;;;;;;8.85;6.78;;;;;;;15.28;100.00;101205.97;1676396;83;21185;-83
2021/10/21 09:15:19;;;;;;;8.83;6.78;;;;;;;15.27;100.00;101197.74;1693987;83;21530;-85
2021/10/21 09:17:48;;;;;;;11.93;6.80;;;;;;;15.26;100.00;101210.05;1690026;83;21531;-81
2021/10/21 09:20:38;;;;;;;10.40;6.78;;;;;;;15.26;100.00;101201.36;1694306;83;21642;-82
2021/10/21 09:23:11;;;;;;;7.67;6.62;;;;;;;15.24;100.00;101198.84;1691425;83;21049;-83
2021/10/21 09:25:39;;;;;;;8.60;6.35;;;;;;;15.24;100.00;101196.72;1689475;83;21614;-83
2021/10/21 09:28:20;;;;;;;7.15;6.40;;;;;;;15.22;100.00;101185.52;1694714;83;21101;-81
2021/10/21 09:30:58;;;;;;;8.65;6.92;;;;;;;15.19;100.00;101183.99;1692471;83;21120;-82
2021/10/21 09:33:26;;;;;;;9.13;7.17;;;;;;;15.18;100.00;101180.20;1683768;83;21081;-82
2021/10/21 09:38:57;;;;;;;8.55;6.55;;;;;;;15.29;100.00;101169.59;1818534;77;22669;-86
2021/10/21 09:41:33;;;;;;;14.95;11.75;;;;;;;15.33;100.00;101172.31;1709099;82;21578;-90
2021/10/21 09:44:04;;;;;;;10.98;8.55;;;;;;;15.42;100.00;101166.73;1701068;82;22131;-85
2021/10/21 09:46:42;;;;;;;14.00;7.30;;;;;;;15.50;100.00;101162.96;1727525;82;21070;-86
2021/10/21 09:49:33;;;;;;;13.25;7.70;;;;;;;15.57;100.00;101164.58;1737959;81;21543;-84
2021/10/21 09:52:01;;;;;;;;;;;;;;;15.63;100.00;101158.78;1713106;82;21040;-83
2021/10/21 09:54:29;;;;;;;9.45;7.17;;;;;;;15.70;100.00;101156.45;1708582;82;20119;-85
2021/10/21 09:57:06;;;;;;;11.40;6.92;;;;;;;15.75;100.00;101148.99;1736587;81;21241;-84
2021/10/21 09:59:37;;;;;;;10.03;7.35;;;;;;;15.81;100.00;101155.50;1738008;82;21129;-83
2021/10/21 10:02:17;;;;;;;11.55;6.55;;;;;;;15.87;100.00;101151.85;1738193;81;20868;-81
2021/10/21 10:04:51;;;;;;;11.03;6.63;;;;;;;15.95;100.00;101144.62;1738374;81;21015;-82
2021/10/21 10:07:23;;;;;;;10.10;6.50;;;;;;;15.99;100.00;101145.17;1708648;82;20943;-84
2021/10/21 10:09:50;;;;;;;10.20;6.53;;;;;;;16.03;100.00;101144.76;1736971;81;21136;-89
2021/10/21 10:12:18;;;;;;;7.92;6.12;;;;;;;16.08;100.00;101146.97;1708090;81;21323;-91
2021/10/21 10:14:47;;;;;;;13.40;7.15;;;;;;;16.15;100.00;101140.19;1738294;81;21069;-92
2021/10/21 10:17:15;;;;;;;11.60;6.55;;;;;;;16.22;100.00;101139.16;1738075;81;21011;-86
2021/10/21 10:19:47;;;;;;;8.48;6.53;;;;;;;16.22;100.00;101141.78;1708758;82;21003;-84
2021/10/21 10:22:25;;;;;;;10.32;6.22;;;;;;;16.16;100.00;101135.75;1734917;81;21826;-86
2021/10/21 10:24:54;;;;;;;7.83;6.28;;;;;;;16.11;100.00;101132.72;1735974;81;21633;-84
2021/10/21 10:27:29;;;;;;;9.28;7.10;;;;;;;16.08;100.00;101125.45;1735526;81;21599;-86
2021/10/21 10:30:01;;;;;;;9.35;6.60;;;;;;;16.07;100.00;101119.04;1738028;81;21078;-90
2021/10/21 10:32:40;;;;;;;9.90;6.58;;;;;;;16.04;100.00;101120.16;1709247;82;21003;-85
2021/10/21 10:35:13;;;;;;;8.35;6.10;;;;;;;16.04;100.00;101110.96;1708377;82;21094;-85
2021/10/21 10:37:51;;;;;;;8.08;5.85;;;;;;;16.08;100.00;101103.12;1710584;82;21113;-82
2021/10/21 10:40:40;;;;;;;12.68;5.65;;;;;;;16.17;100.00;101099.32;1738296;81;21034;-83
2021/10/21 10:43:07;;;;;;;7.65;6.25;;;;;;;16.28;100.00;101101.80;1743303;81;21499;-82
2021/10/21 10:45:49;;;;;;;6.30;5.70;;;;;;;16.42;100.00;101103.64;1740447;81;21079;-83
2021/10/21 10:48:20;;;;;;;;;;;;;;;16.49;100.00;101099.47;1713784;82;21058;-84
2021/10/21 10:50:50;;;;;;;;;;;;;;;16.56;100.00;101090.88;1716054;82;20144;-85
2021/10/21 10:53:17;;;;;;;7.30;5.53;;;;;;;16.61;100.00;101096.19;1742317;81;20178;-85
2021/10/21 10:55:47;;;;;;;7.85;5.97;;;;;;;16.63;100.00;101088.48;1742481;81;21030;-82
2021/10/21 10:58:24;;;;;;;12.63;6.10;;;;;;;16.62;100.00;101086.86;1743231;81;21054;-84
2021/10/21 11:00:59;;;;;;;10.53;6.45;;;;;;;16.62;100.00;101086.86;1700602;82;21297;-84
2021/10/21 11:03:42;;;;;;;9.25;6.92;;;;;;;16.60;100.00;101079.59;1726278;81;21030;-84
2021/10/21 11:06:17;;;;;;;9.93;6.60;;;;;;;16.58;100.00;101077.59;1731328;81;21609;-85
2021/10/21 11:09:04;;;;;;;12.68;5.92;;;;;;;16.56;100.00;101074.27;1709385;82;21042;-85
2021/10/21 11:11:55;;;;;;;10.98;6.78;;;;;;;16.55;100.00;101072.13;1742672;81;21136;-84
2021/10/21 11:14:45;;;;;;;10.05;6.95;;;;;;;16.59;100.00;101077.93;1713217;82;21110;-85
2021/10/21 11:17:14;;;;;;;7.92;6.22;;;;;;;16.62;100.00;101073.72;1742545;81;21031;-84
2021/10/21 11:19:45;;;;;;;6.80;5.75;;;;;;;16.62;100.00;101059.25;1712901;82;21449;-84
2021/10/21 11:22:22;;;;;;;9.25;6.40;;;;;;;16.63;100.00;101065.33;1713309;82;21069;-85
2021/10/21 11:24:56;;;;;;;14.53;6.75;;;;;;;16.62;100.00;101049.20;1717478;81;21078;-83
2021/10/21 11:27:37;;;;;;;7.55;6.70;;;;;;;16.61;100.00;101053.65;1713031;81;21156;-83
2021/10/21 11:30:09;;;;;;;11.25;7.10;;;;;;;16.60;100.00;101045.42;1712856;82;21546;-85
2021/10/21 11:32:39;;;;;;;12.90;7.70;;;;;;;16.62;100.00;101040.01;1684539;83;21352;-85
2021/10/21 11:35:12;;;;;;;13.95;9.33;;;;;;;16.64;100.00;101041.52;1726577;81;21053;-85
2021/10/21 11:37:52;;;;;;;10.05;7.60;;;;;;;16.65;100.00;101035.28;1719534;82;21156;-85
2021/10/21 11:40:37;;;;;;;11.38;6.92;;;;;;;16.64;100.00;101029.69;1717162;81;21169;-84
2021/10/21 11:43:21;;;;;;;15.72;8.00;;;;;;;16.61;100.00;101020.79;1724539;82;21122;-84
2021/10/21 11:45:46;;;;;;;13.75;8.48;;;;;;;16.56;100.00;101029.11;1724488;82;21085;-84
2021/10/21 11:48:16;;;;;;;11.97;8.50;;;;;;;16.50;100.00;101023.12;1732335;82;21074;-84
2021/10/21 11:50:46;;;;;;;11.85;8.45;;;;;;;16.48;100.00;101024.21;1732022;82;21031;-84
2021/10/21 11:53:15;;;;;;;10.35;7.37;;;;;;;16.44;100.00;101017.59;1728897;81;21150;-84
2021/10/21 11:55:45;;;;;;;12.90;7.72;;;;;;;16.39;100.00;101018.84;1729418;81;21054;-84
2021/10/21 11:58:16;;;;;;;11.68;7.87;;;;;;;16.35;100.00;101024.53;1710963;82;22603;-84
2021/10/21 12:00:45;;;;;;;;;;;;;;;16.28;100.00;101020.34;1734846;82;21011;-84
2021/10/21 12:03:12;;;;;;;8.20;6.10;;;;;;;16.24;100.00;101022.91;1730484;81;20179;-83
2021/10/21 12:05:46;;;;;;;11.78;7.42;;;;;;;16.19;100.00;101017.27;1732488;82;26780;-85
2021/10/21 12:08:19;;;;;;;8.77;7.13;;;;;;;16.13;100.00;101017.84;1732669;82;21040;-84
2021/10/21 12:10:46;;;;;;;8.50;6.42;;;;;;;16.08;100.00;101008.56;1726771;82;21599;-84
2021/10/21 12:13:36;;;;;;;14.75;7.45;;;;;;;16.06;100.00;101009.19;1730924;81;21129;-84
2021/10/21 12:16:16;;;;;;;11.75;7.87;;;;;;;16.05;100.00;101008.87;1710822;82;21536;-83
2021/10/21 12:18:44;;;;;;;13.70;8.98;;;;;;;16.07;100.00;101004.28;1710127;81;22233;-84
2021/10/21 12:21:11;;;;;;;11.18;8.55;;;;;;;16.11;100.00;100997.44;1711462;82;21008;-84
2021/10/21 12:23:51;;;;;;;11.43;7.75;;;;;;;16.11;100.00;101002.20;1732446;82;21004;-84
2021/10/21 12:26:31;;;;;;;14.95;9.15;;;;;;;16.12;100.00;101000.41;1706141;82;21168;-85
2021/10/21 12:29:06;;;;;;;12.73;7.22;;;;;;;16.12;100.00;100999.09;1723969;81;21834;-86
2021/10/21 12:31:37;;;;;;;7.45;6.55;;;;;;;16.11;100.00;100996.94;1727393;82;21774;-86
2021/10/21 12:34:13;;;;;;;12.30;7.30;;;;;;;16.08;100.00;100999.37;1730601;82;21026;-84
2021/10/21 12:36:47;;;;;;;8.53;6.87;;;;;;;16.06;100.00;100998.68;1720714;81;21126;-85
2021/10/21 12:39:18;;;;;;;9.68;6.58;;;;;;;16.02;100.00;100996.01;1736502;81;21038;-85
2021/10/21 12:42:04;;;;;;;;;;;;;;;15.98;100.00;100983.30;1741499;82;21089;-86
2021/10/21 12:44:41;;;;;;;8.70;6.30;;;;;;;15.92;100.00;100989.94;1740355;81;20453;-85
2021/10/21 12:47:27;;;;;;;8.15;5.80;;;;;;;15.84;100.00;100990.66;1738908;81;21125;-86
2021/10/21 12:50:11;;;;;;;9.33;5.90;;;;;;;15.78;100.00;100988.08;1740451;82;21058;-87
2021/10/21 12:52:45;;;;;;;9.43;5.95;;;;;;;15.72;100.00;100976.83;1740472;82;21098;-86
2021/10/21 12:55:21;;;;;;;10.32;5.97;;;;;;;15.66;100.00;100981.33;1739894;82;21081;-86
2021/10/21 12:58:01;;;;;;;8.78;5.90;;;;;;;15.61;100.00;100984.84;1732146;81;21146;-85
2021/10/21 13:00:36;;;;;;;9.13;6.12;;;;;;;15.55;100.00;100978.34;1731885;81;21101;-86
2021/10/21 13:03:14;;;;;;;11.25;6.33;;;;;;;15.51;100.00;100976.13;1736977;81;21045;-85
2021/10/21 13:05:43;;;;;;;8.55;6.08;;;;;;;15.46;100.00;100969.52;1698629;82;21030;-86
2021/10/21 13:08:11;;;;;;;7.67;5.97;;;;;;;15.42;100.00;100964.69;1707939;81;21140;-86
2021/10/21 13:10:58;;;;;;;10.90;6.33;;;;;;;15.37;100.00;100969.03;1738315;81;21139;-86
2021/10/21 13:13:40;;;;;;;9.30;6.30;;;;;;;15.34;100.00;100965.39;1740724;82;21043;-85
2021/10/21 13:16:10;;;;;;;11.20;6.30;;;;;;;15.30;100.00;100958.75;1740569;82;21018;-88
2021/10/21 13:18:38;;;;;;;8.78;6.60;;;;;;;15.26;100.00;100959.51;1741115;82;21067;-91
2021/10/21 13:21:06;;;;;;;10.08;6.33;;;;;;;15.24;100.00;100959.31;1687236;82;21010;-90
2021/10/21 13:23:34;;;;;;;9.45;5.70;;;;;;;15.22;100.00;100952.05;1740401;82;21159;-90
2021/10/21 13:26:03;;;;;;;9.40;5.92;;;;;;;15.18;100.00;100945.44;1740407;82;21764;-88
2021/10/21 13:28:31;;;;;;;19.17;6.83;;;;;;;15.14;100.00;100939.14;1738616;81;21122;-88
2021/10/21 13:30:58;;;;;;;9.70;6.20;;;;;;;15.11;100.00;100932.84;1710991;82;21057;-89
2021/10/21 13:33:26;;;;;;;18.25;6.65;;;;;;;15.10;100.00;100929.88;1711355;82;21030;-88
2021/10/21 13:35:53;;;;;;;10.58;5.97;;;;;;;15.07;100.00;100925.39;1710487;82;21076;-88
2021/10/21 13:38:21;;;;;;;10.10;5.70;;;;;;;15.05;100.00;100916.85;1711355;82;22159;-87
2021/10/21 13:40:48;;;;;;;12.25;5.03;;;;;;;15.02;100.00;100912.72;1701597;83;21094;-89
2021/10/21 13:43:15;;;;;;;9.00;5.17;;;;;;;14.97;100.00;100913.12;1720226;82;21018;-89
2021/10/21 13:45:43;;;;;;;9.30;5.17;;;;;;;14.96;100.00;100910.62;1734542;81;21101;-88
2021/10/21 13:48:12;;;;;;;14.43;5.42;;;;;;;14.93;100.00;100905.17;1712631;81;21071;-87
2021/10/21 13:50:39;;;;;;;6.05;4.97;;;;;;;14.91;100.00;100902.34;1742192;81;21047;-87
2021/10/21 13:53:10;;;;;;;8.33;5.25;;;;;;;14.90;100.00;100900.69;1712606;82;21054;-89
2021/10/21 13:55:39;;;;;;;9.83;4.70;;;;;;;14.89;100.00;100890.69;1712991;82;21066;-88
2021/10/21 13:58:09;;;;;;;11.28;5.10;;;;;;;14.86;100.00;100897.51;1710645;81;21011;-88
2021/10/21 14:00:36;;;;;;;6.37;4.87;;;;;;;14.83;100.00;100881.58;1742385;81;21157;-88
2021/10/21 14:03:04;;;;;;;10.00;5.00;;;;;;;14.81;100.00;100882.68;1733333;82;21037;-87
2021/10/21 14:05:36;;;;;;;13.65;5.30;;;;;;;14.78;100.00;100877.20;1732627;82;21124;-88
2021/10/21 14:08:04;;;;;;;8.63;4.70;;;;;;;14.76;100.00;100875.69;1712845;82;21038;-87
2021/10/21 14:10:35;;;;;;;10.72;5.28;;;;;;;14.72;100.00;100876.45;1741232;81;21160;-88
2021/10/21 14:13:02;;;;;;;9.25;5.05;;;;;;;14.69;100.00;100879.82;1713304;82;21151;-87
2021/10/21 14:15:29;;;;;;;8.43;5.30;;;;;;;14.64;100.00;100873.64;1742294;81;21065;-86
2021/10/21 14:17:56;;;;;;;8.63;5.58;;;;;;;14.60;100.00;100877.52;1742292;81;21070;-86
2021/10/21 14:20:24;;;;;;;9.83;6.00;;;;;;;14.55;100.00;100883.16;1742397;82;21055;-87
2021/10/21 14:22:52;;;;;;;8.38;5.83;;;;;;;14.51;100.00;100883.06;1742575;81;21061;-86
2021/10/21 14:25:19;;;;;;;11.53;6.03;;;;;;;14.47;100.00;100879.88;1742571;82;21853;-87
2021/10/21 14:27:46;;;;;;;9.00;5.35;;;;;;;14.45;100.00;100885.77;1742791;81;21066;-87
2021/10/21 14:30:15;;;;;;;13.13;6.22;;;;;;;14.41;100.00;100879.12;1713389;82;21579;-87
2021/10/21 14:32:43;;;;;;;10.63;6.05;;;;;;;14.38;100.00;100879.87;1710808;82;21023;-87
2021/10/21 14:35:15;;;;;;;12.68;6.50;;;;;;;14.35;100.00;100877.04;1742964;81;20995;-89
2021/10/21 14:37:45;;;;;;;13.55;5.95;;;;;;;14.34;100.00;100874.07;1710476;82;21668;-88
2021/10/21 14:40:15;;;;;;;14.73;6.95;;;;;;;14.32;100.00;100862.42;1728238;81;21073;-88
2021/10/21 14:42:44;;;;;;;11.80;5.63;;;;;;;14.30;100.00;100862.22;1738503;81;21069;-89